Time;durP1;ratioP1;P1;durP2;ratioP2;P2;SDS_P1;SDS_P2;PMS_P1;PMS_P2;Temp;Humidity;BMP_temperature;BMP_pressure;BME280_temperature;BME280_humidity;BME280_pressure;Samples;Min_cycle;Max_cycle;Signal;HPM_P1;HPM_P2
2024/02/03 00:00:38;;;;;;;1.20;0.70;;;;;;;6.10;nan;96983.78;2064394;28;20053;-55
2024/02/03 00:01:39;;;;;;;1.20;0.60;;;;;;;6.05;nan;96990.72;2065627;28;20057;-55
2024/02/03 00:02:40;;;;;;;0.70;0.30;;;;;;;6.01;nan;96986.47;2066055;28;20050;-56
2024/02/03 00:03:42;;;;;;;1.10;0.60;;;;;;;6.01;nan;96981.31;2065818;28;20041;-55
2024/02/03 00:04:43;;;;;;;1.35;0.60;;;;;;;6.00;nan;96982.19;2065058;28;20077;-55
2024/02/03 00:05:45;;;;;;;1.27;0.80;;;;;;;5.98;nan;96992.50;2064832;28;20042;-55
2024/02/03 00:06:46;;;;;;;0.93;0.70;;;;;;;5.94;nan;96989.13;2065007;28;20402;-55
2024/02/03 00:07:48;;;;;;;0.98;0.65;;;;;;;5.91;nan;96996.88;2065798;28;20042;-55
2024/02/03 00:08:49;;;;;;;1.23;0.55;;;;;;;5.95;nan;96989.97;2066021;28;20061;-57
2024/02/03 00:09:50;;;;;;;1.80;0.90;;;;;;;6.00;nan;97000.25;2065874;28;20042;-56
2024/02/03 00:10:51;;;;;;;1.00;0.70;;;;;;;5.94;nan;96999.44;2065447;28;20116;-55
2024/02/03 00:11:55;;;;;;;1.30;0.60;;;;;;;5.90;nan;97000.31;2065679;28;20053;-55
2024/02/03 00:12:56;;;;;;;1.23;0.60;;;;;;;5.85;nan;96996.94;2064975;28;20058;-56
2024/02/03 00:13:57;;;;;;;2.15;0.85;;;;;;;5.85;nan;97007.25;2065242;28;20061;-57
2024/02/03 00:14:59;;;;;;;0.90;0.60;;;;;;;5.82;nan;97012.44;2065716;28;20494;-56
2024/02/03 00:16:00;;;;;;;1.10;0.70;;;;;;;5.82;nan;97004.72;2056501;28;20074;-52
2024/02/03 00:17:02;;;;;;;1.35;0.73;;;;;;;5.77;nan;97014.22;2057093;28;20046;-55
2024/02/03 00:18:03;;;;;;;1.40;0.52;;;;;;;5.73;nan;97004.84;2065698;28;20042;-56
2024/02/03 00:19:04;;;;;;;4.50;1.15;;;;;;;5.74;nan;97019.41;2065038;28;20380;-57
2024/02/03 00:20:07;;;;;;;2.10;1.05;;;;;;;5.72;nan;97009.16;2065314;28;20061;-55
2024/02/03 00:21:08;;;;;;;1.90;0.75;;;;;;;5.71;nan;97011.72;2065343;28;20065;-54
2024/02/03 00:22:10;;;;;;;1.08;0.50;;;;;;;5.68;nan;97017.78;2065664;28;20042;-53
2024/02/03 00:23:11;;;;;;;1.52;0.70;;;;;;;5.66;nan;97010.94;2056557;28;20046;-55
2024/02/03 00:24:12;;;;;;;1.52;0.70;;;;;;;5.64;nan;97010.09;2057139;28;20038;-55
2024/02/03 00:25:13;;;;;;;1.40;0.60;;;;;;;5.65;nan;97006.66;2065960;28;20049;-55
2024/02/03 00:26:15;;;;;;;1.27;0.75;;;;;;;5.60;nan;97011.84;2065517;28;20054;-55
2024/02/03 00:27:16;;;;;;;1.70;0.55;;;;;;;5.52;nan;97006.78;2065735;28;20479;-53
2024/02/03 00:28:17;;;;;;;1.58;0.70;;;;;;;5.52;nan;97005.94;2065417;28;20395;-56
2024/02/03 00:29:18;;;;;;;0.82;0.60;;;;;;;5.60;nan;97008.44;2065131;28;20061;-54
2024/02/03 00:30:19;;;;;;;3.63;0.80;;;;;;;5.63;nan;97011.81;2065658;28;20030;-56
2024/02/03 00:31:21;;;;;;;1.75;0.63;;;;;;;5.61;nan;96999.81;2065109;28;20046;-55
2024/02/03 00:32:22;;;;;;;0.98;0.52;;;;;;;5.66;nan;97013.50;2065637;28;20475;-56
2024/02/03 00:33:23;;;;;;;1.20;0.60;;;;;;;5.64;nan;97002.34;2064500;28;20046;-53
2024/02/03 00:34:24;;;;;;;0.70;0.55;;;;;;;5.65;nan;97012.66;2065452;28;20046;-56
2024/02/03 00:35:25;;;;;;;0.82;0.40;;;;;;;5.68;nan;97014.34;2065388;28;20079;-53
2024/02/03 00:36:26;;;;;;;1.42;0.70;;;;;;;5.81;nan;97017.63;2065740;28;20110;-56
2024/02/03 00:37:27;;;;;;;1.50;0.60;;;;;;;5.79;nan;97017.66;2056442;28;20045;-55
2024/02/03 00:38:28;;;;;;;0.65;0.30;;;;;;;5.83;nan;96996.13;2057161;28;20050;-54
2024/02/03 00:39:29;;;;;;;1.65;0.90;;;;;;;5.92;nan;97001.16;2064968;28;20065;-54
2024/02/03 00:40:31;;;;;;;2.17;0.77;;;;;;;5.93;nan;97012.31;2065066;28;20053;-56
2024/02/03 00:41:32;;;;;;;1.33;0.90;;;;;;;5.85;nan;97009.81;2065536;28;20034;-55
2024/02/03 00:42:33;;;;;;;1.17;0.70;;;;;;;5.83;nan;97005.59;2057273;28;20038;-55
2024/02/03 00:43:34;;;;;;;1.58;0.88;;;;;;;5.81;nan;97005.59;2049099;29;20050;-53
2024/02/03 00:44:36;;;;;;;1.73;0.80;;;;;;;5.76;nan;97002.22;2056691;28;20046;-56
2024/02/03 00:45:37;;;;;;;1.35;0.70;;;;;;;5.69;nan;97011.75;2065730;28;20050;-55
2024/02/03 00:46:38;;;;;;;1.58;0.73;;;;;;;5.70;nan;97012.63;2065588;28;20391;-55
2024/02/03 00:47:39;;;;;;;0.77;0.57;;;;;;;5.71;nan;97009.16;2065351;28;20061;-56
2024/02/03 00:48:40;;;;;;;1.70;0.88;;;;;;;5.78;nan;97008.22;2065222;28;20038;-56
2024/02/03 00:49:44;;;;;;;0.98;0.65;;;;;;;5.73;nan;96995.38;2065236;28;20054;-56
2024/02/03 00:50:45;;;;;;;0.70;0.50;;;;;;;5.71;nan;97004.00;2055922;28;20458;-56
2024/02/03 00:51:46;;;;;;;1.23;0.50;;;;;;;5.71;nan;97004.00;2056652;28;20062;-56
2024/02/03 00:52:47;;;;;;;3.58;0.80;;;;;;;5.69;nan;97011.75;2065516;28;20086;-56
2024/02/03 00:53:48;;;;;;;1.63;0.70;;;;;;;5.71;nan;96997.09;2065682;28;20034;-56
2024/02/03 00:54:49;;;;;;;1.23;0.60;;;;;;;5.69;nan;97008.31;2065045;28;20049;-55
2024/02/03 00:55:50;;;;;;;1.13;0.60;;;;;;;5.68;nan;97011.78;2065813;28;20409;-56
2024/02/03 00:56:51;;;;;;;1.55;0.70;;;;;;;5.64;nan;97005.81;2065890;28;20041;-55
2024/02/03 00:57:53;;;;;;;1.50;0.75;;;;;;;5.58;nan;97008.44;2065628;28;20046;-56
2024/02/03 00:58:54;;;;;;;1.65;0.98;;;;;;;5.55;nan;97007.63;2065609;28;20034;-54
2024/02/03 00:59:55;;;;;;;2.65;0.77;;;;;;;5.58;nan;97005.00;2064956;28;20395;-56
2024/02/03 01:00:56;;;;;;;2.00;0.80;;;;;;;5.61;nan;97008.41;2065851;28;20049;-56
2024/02/03 01:01:57;;;;;;;1.50;0.70;;;;;;;5.62;nan;97006.69;2065021;28;20062;-56
2024/02/03 01:02:58;;;;;;;0.73;0.45;;;;;;;5.56;nan;97009.31;2064966;28;20057;-55
2024/02/03 01:04:00;;;;;;;2.17;0.95;;;;;;;5.64;nan;97004.94;2064833;28;20065;-56
2024/02/03 01:05:01;;;;;;;1.25;0.52;;;;;;;5.65;nan;97011.81;2064575;28;20525;-55
2024/02/03 01:06:02;;;;;;;1.77;0.70;;;;;;;5.67;nan;97003.19;2065493;28;20042;-55
2024/02/03 01:07:03;;;;;;;1.52;0.70;;;;;;;5.70;nan;97007.47;2065162;28;20054;-55
2024/02/03 01:08:05;;;;;;;1.08;0.63;;;;;;;5.61;nan;96994.66;2065330;28;20062;-55
2024/02/03 01:09:06;;;;;;;1.60;0.75;;;;;;;5.66;nan;97000.63;2065568;28;20045;-55
2024/02/03 01:10:07;;;;;;;0.77;0.50;;;;;;;5.62;nan;97004.13;2065625;28;20038;-56
2024/02/03 01:11:09;;;;;;;1.27;0.55;;;;;;;5.60;nan;97008.44;2056830;28;20042;-53
2024/02/03 01:12:10;;;;;;;2.03;0.88;;;;;;;5.65;nan;97004.94;2048878;28;20051;-55
2024/02/03 01:13:11;;;;;;;0.70;0.55;;;;;;;5.56;nan;96999.88;2058231;28;20062;-56
2024/02/03 01:14:12;;;;;;;1.23;0.60;;;;;;;5.55;nan;97003.31;2067230;28;20042;-56
2024/02/03 01:15:13;;;;;;;1.02;0.68;;;;;;;5.56;nan;96999.88;2067117;28;20042;-55
2024/02/03 01:16:15;;;;;;;1.77;0.75;;;;;;;5.60;nan;97003.28;2066229;28;20084;-55
2024/02/03 01:17:16;;;;;;;1.58;0.52;;;;;;;5.58;nan;97003.28;2067090;28;20042;-56
2024/02/03 01:18:18;;;;;;;1.90;0.73;;;;;;;5.55;nan;97005.91;2067117;28;20043;-55
2024/02/03 01:19:19;;;;;;;1.70;0.80;;;;;;;5.51;nan;97005.09;2066542;28;20061;-55
2024/02/03 01:20:20;;;;;;;1.77;0.80;;;;;;;5.49;nan;97005.97;2067014;28;20046;-55
2024/02/03 01:21:22;;;;;;;1.50;0.75;;;;;;;5.44;nan;97003.44;2067076;28;20049;-57
2024/02/03 01:22:23;;;;;;;1.75;0.73;;;;;;;5.39;nan;97012.09;2067321;28;20051;-55
2024/02/03 01:23:24;;;;;;;1.77;0.60;;;;;;;5.39;nan;97007.78;2066754;28;20049;-55
2024/02/03 01:24:25;;;;;;;1.83;0.82;;;;;;;5.32;nan;97008.75;2066228;28;20053;-56
2024/02/03 01:25:26;;;;;;;1.65;0.75;;;;;;;5.21;nan;97005.41;2067231;28;20474;-55
2024/02/03 01:26:28;;;;;;;2.78;0.70;;;;;;;5.31;nan;97000.13;2066996;28;20033;-56
2024/02/03 01:27:29;;;;;;;1.85;0.85;;;;;;;5.25;nan;97000.22;2066499;28;20073;-57
2024/02/03 01:28:30;;;;;;;1.95;0.90;;;;;;;5.20;nan;97006.28;2067124;28;20038;-56
2024/02/03 01:29:31;;;;;;;1.48;0.85;;;;;;;5.20;nan;97006.28;2066376;28;20034;-56
2024/02/03 01:30:32;;;;;;;3.70;0.70;;;;;;;5.19;nan;97009.72;2067226;28;20030;-55
2024/02/03 01:31:33;;;;;;;1.15;0.70;;;;;;;5.23;nan;97004.50;2067034;28;20038;-55
2024/02/03 01:32:34;;;;;;;1.25;0.65;;;;;;;5.19;nan;97002.00;2067188;28;20058;-55
2024/02/03 01:33:35;;;;;;;1.58;0.75;;;;;;;5.14;nan;97008.91;2066937;28;20575;-55
2024/02/03 01:34:36;;;;;;;1.25;0.70;;;;;;;5.16;nan;97008.03;2066180;28;20057;-54
2024/02/03 01:35:37;;;;;;;1.38;0.60;;;;;;;5.33;nan;97015.59;2067082;28;20042;-56
2024/02/03 01:36:39;;;;;;;2.28;0.88;;;;;;;5.35;nan;97013.84;2067137;28;20390;-56
2024/02/03 01:37:40;;;;;;;1.30;0.70;;;;;;;5.35;nan;97013.84;2066406;28;20050;-56
2024/02/03 01:38:44;;;;;;;1.65;0.73;;;;;;;5.28;nan;97009.63;2067073;28;20049;-56
2024/02/03 01:39:45;;;;;;;1.58;0.90;;;;;;;5.40;nan;97011.22;2067011;28;20042;-56
2024/02/03 01:40:46;;;;;;;1.67;0.70;;;;;;;5.42;nan;97005.16;2066916;28;20053;-54
2024/02/03 01:41:47;;;;;;;1.45;0.80;;;;;;;5.43;nan;97017.19;2066325;28;20050;-56
2024/02/03 01:42:48;;;;;;;1.73;0.80;;;;;;;5.49;nan;97022.28;2066924;28;20065;-54
2024/02/03 01:43:50;;;;;;;1.15;0.63;;;;;;;5.42;nan;97019.78;2067090;28;20041;-57
2024/02/03 01:44:51;;;;;;;1.08;0.55;;;;;;;5.40;nan;97016.34;2066079;28;20054;-55
2024/02/03 01:45:52;;;;;;;1.73;0.80;;;;;;;5.46;nan;97017.16;2058162;28;20046;-54
2024/02/03 01:46:53;;;;;;;1.13;0.70;;;;;;;5.46;nan;97017.16;2050274;29;20043;-55
2024/02/03 01:47:54;;;;;;;1.02;0.52;;;;;;;5.52;nan;97011.94;2058492;28;20049;-55
2024/02/03 01:48:56;;;;;;;1.85;0.77;;;;;;;5.51;nan;97014.53;2057344;28;20062;-55
2024/02/03 01:49:57;;;;;;;1.20;0.60;;;;;;;5.58;nan;97010.16;2050435;28;20043;-55
2024/02/03 01:50:58;;;;;;;1.85;1.05;;;;;;;5.58;nan;97013.59;2050315;28;20039;-55
2024/02/03 01:51:59;;;;;;;1.67;0.90;;;;;;;5.57;nan;97004.16;2042396;29;20035;-55
2024/02/03 01:53:01;;;;;;;1.52;0.80;;;;;;;5.48;nan;97005.13;2042446;28;20051;-54
2024/02/03 01:54:02;;;;;;;1.08;0.70;;;;;;;5.47;nan;97007.72;2050425;28;20054;-55
2024/02/03 01:55:07;;;;;;;1.45;0.68;;;;;;;5.53;nan;97008.50;2049166;28;20059;-54
2024/02/03 01:56:08;;;;;;;1.75;0.60;;;;;;;5.59;nan;97001.59;2050897;28;20051;-55
2024/02/03 01:57:09;;;;;;;2.33;0.60;;;;;;;5.58;nan;97003.28;2058276;28;20427;-55
2024/02/03 01:58:10;;;;;;;1.55;0.70;;;;;;;5.55;nan;96992.16;2066846;28;20061;-56
2024/02/03 01:59:12;;;;;;;1.40;0.70;;;;;;;5.47;nan;97000.81;2066825;28;20049;-54
2024/02/03 02:00:13;;;;;;;1.35;0.75;;;;;;;5.44;nan;97002.59;2058163;28;20046;-55
2024/02/03 02:01:15;;;;;;;0.82;0.47;;;;;;;5.41;nan;96989.75;2057507;28;20054;-55
2024/02/03 02:02:16;;;;;;;1.52;0.73;;;;;;;5.38;nan;96992.38;2066830;28;20049;-55
2024/02/03 02:03:17;;;;;;;3.72;0.77;;;;;;;5.37;nan;96983.75;2066845;28;20034;-56
2024/02/03 02:04:19;;;;;;;1.27;0.80;;;;;;;5.26;nan;96994.19;2066562;28;20053;-56
2024/02/03 02:05:20;;;;;;;1.88;0.90;;;;;;;5.20;nan;96988.25;2066744;28;20049;-54
2024/02/03 02:06:22;;;;;;;1.77;0.70;;;;;;;5.32;nan;96993.28;2066168;28;20073;-56
2024/02/03 02:07:23;;;;;;;1.15;0.57;;;;;;;5.37;nan;96988.06;2066390;28;20053;-55
2024/02/03 02:08:37;;;;;;;1.48;0.77;;;;;;;5.27;nan;96990.75;2066761;28;20065;-55
2024/02/03 02:09:38;;;;;;;1.67;0.70;;;;;;;5.30;nan;96990.72;2066172;28;20057;-55
2024/02/03 02:10:39;;;;;;;1.83;0.80;;;;;;;5.28;nan;96987.28;2066105;28;20053;-55
2024/02/03 02:11:40;;;;;;;1.50;0.50;;;;;;;5.21;nan;96983.09;2066680;28;20390;-55
2024/02/03 02:12:42;;;;;;;1.35;0.65;;;;;;;5.21;nan;96984.78;2066675;28;20069;-54
2024/02/03 02:13:43;;;;;;;1.38;0.57;;;;;;;5.21;nan;96984.78;2058933;28;20078;-54
2024/02/03 02:14:44;;;;;;;1.52;0.65;;;;;;;5.23;nan;96985.63;2058723;28;20042;-56
2024/02/03 02:15:46;;;;;;;1.20;0.60;;;;;;;5.17;nan;96989.13;2058007;28;20053;-55
2024/02/03 02:16:47;;;;;;;1.00;0.50;;;;;;;5.20;nan;96983.09;2058086;28;20038;-55
2024/02/03 02:17:48;;;;;;;0.93;0.60;;;;;;;5.17;nan;96978.84;2058524;28;20046;-55
2024/02/03 02:18:50;;;;;;;1.08;0.52;;;;;;;5.20;nan;96980.53;2058527;28;20077;-54
2024/02/03 02:19:51;;;;;;;1.42;0.70;;;;;;;5.11;nan;96975.47;2058228;28;20066;-55
2024/02/03 02:20:53;;;;;;;1.58;0.70;;;;;;;5.20;nan;96978.78;2058147;28;20404;-53
2024/02/03 02:21:54;;;;;;;1.45;0.80;;;;;;;5.11;nan;96978.06;2057726;28;20050;-56
2024/02/03 02:22:55;;;;;;;1.08;0.50;;;;;;;5.07;nan;96977.22;2057891;28;20069;-54
2024/02/03 02:23:57;;;;;;;1.88;0.73;;;;;;;5.05;nan;96976.38;2058021;28;20057;-55
2024/02/03 02:24:58;;;;;;;0.80;0.38;;;;;;;4.99;nan;96969.56;2058623;28;20053;-55
2024/02/03 02:26:00;;;;;;;1.20;0.70;;;;;;;5.02;nan;96972.09;2058392;28;20047;-56
2024/02/03 02:27:01;;;;;;;1.70;0.70;;;;;;;5.00;nan;96976.44;2058283;28;20065;-54
2024/02/03 02:28:02;;;;;;;1.85;1.10;;;;;;;5.01;nan;96961.84;2058585;28;20046;-55
2024/02/03 02:29:04;;;;;;;1.05;0.60;;;;;;;5.08;nan;96971.22;2058591;28;20050;-55
2024/02/03 02:30:05;;;;;;;1.10;0.80;;;;;;;5.19;nan;96971.09;2057513;28;20050;-55
2024/02/03 02:31:06;;;;;;;0.98;0.52;;;;;;;5.12;nan;96975.44;2057945;28;20038;-56
2024/02/03 02:32:07;;;;;;;3.63;0.70;;;;;;;5.10;nan;96969.44;2058472;28;20050;-56
2024/02/03 02:33:09;;;;;;;1.15;0.70;;;;;;;5.05;nan;96977.25;2058560;28;20069;-54
2024/02/03 02:34:10;;;;;;;1.42;0.77;;;;;;;5.05;nan;96971.22;2058651;28;20038;-54
2024/02/03 02:35:12;;;;;;;1.00;0.52;;;;;;;4.99;nan;96973.88;2058500;28;20047;-55
2024/02/03 02:36:13;;;;;;;1.23;0.60;;;;;;;4.98;nan;96972.16;2058487;28;20058;-54
2024/02/03 02:37:14;;;;;;;0.95;0.50;;;;;;;4.99;nan;96969.56;2058545;28;20047;-55
2024/02/03 02:38:18;;;;;;;1.90;1.00;;;;;;;4.97;nan;96963.59;2058464;28;20058;-55
2024/02/03 02:39:20;;;;;;;2.80;0.82;;;;;;;4.95;nan;96972.19;2058513;28;20034;-55
2024/02/03 02:40:21;;;;;;;1.55;0.75;;;;;;;4.98;nan;96967.88;2058516;28;20035;-54
2024/02/03 02:41:22;;;;;;;1.00;0.57;;;;;;;5.09;nan;96968.59;2058411;28;20387;-54
2024/02/03 02:42:23;;;;;;;0.70;0.50;;;;;;;5.08;nan;96969.50;2058564;28;20038;-62
2024/02/03 02:43:24;;;;;;;1.52;0.70;;;;;;;5.11;nan;96966.03;2059107;28;20046;-55
2024/02/03 02:44:25;;;;;;;1.58;0.68;;;;;;;5.09;nan;96965.19;2059582;28;20039;-55
2024/02/03 02:45:26;;;;;;;1.23;0.57;;;;;;;5.08;nan;96959.19;2059321;28;20039;-55
2024/02/03 02:46:27;;;;;;;2.10;0.70;;;;;;;4.98;nan;96957.56;2059212;28;20034;-54
2024/02/03 02:47:28;;;;;;;1.40;0.70;;;;;;;4.98;nan;96959.28;2059065;28;20455;-56
2024/02/03 02:48:29;;;;;;;1.00;0.70;;;;;;;4.92;nan;96955.06;2059168;28;20035;-60
2024/02/03 02:49:31;;;;;;;2.03;0.80;;;;;;;5.02;nan;96959.22;2059269;28;20061;-59
2024/02/03 02:50:32;;;;;;;1.95;0.70;;;;;;;5.04;nan;96957.50;2059431;28;20049;-60
2024/02/03 02:51:33;;;;;;;1.05;0.50;;;;;;;5.14;nan;96954.84;2059298;28;20391;-56
2024/02/03 02:52:34;;;;;;;1.20;0.70;;;;;;;5.12;nan;96959.16;2059593;28;20043;-57
2024/02/03 02:53:35;;;;;;;1.98;0.70;;;;;;;5.17;nan;96953.09;2059152;28;20046;-55
2024/02/03 02:54:36;;;;;;;1.42;0.80;;;;;;;5.12;nan;96956.56;2058281;28;20483;-66
2024/02/03 02:55:37;;;;;;;1.05;0.70;;;;;;;5.11;nan;96952.31;2058877;28;20047;-54
2024/02/03 02:56:39;;;;;;;1.13;0.55;;;;;;;5.07;nan;96954.88;2058392;28;20069;-60
2024/02/03 02:57:40;;;;;;;1.92;0.80;;;;;;;5.02;nan;96953.22;2059643;28;20046;-56
2024/02/03 02:58:41;;;;;;;1.20;0.73;;;;;;;5.01;nan;96947.22;2059306;28;20042;-60
2024/02/03 02:59:42;;;;;;;2.40;0.93;;;;;;;5.05;nan;96950.63;2059277;28;20050;-65
2024/02/03 03:00:43;;;;;;;1.00;0.50;;;;;;;5.12;nan;96956.56;2058594;28;20070;-59
2024/02/03 03:01:44;;;;;;;1.42;0.77;;;;;;;5.05;nan;96950.63;2057910;28;20058;-55
2024/02/03 03:02:45;;;;;;;0.70;0.50;;;;;;;4.99;nan;96954.13;2059352;28;20410;-57
2024/02/03 03:03:46;;;;;;;1.17;0.60;;;;;;;4.95;nan;96955.03;2059234;28;20043;-56
2024/02/03 03:04:48;;;;;;;1.50;0.70;;;;;;;4.92;nan;96960.22;2059208;28;20051;-65
2024/02/03 03:05:49;;;;;;;0.52;0.50;;;;;;;4.99;nan;96948.97;2059223;28;20058;-58
2024/02/03 03:06:50;;;;;;;0.82;0.52;;;;;;;4.98;nan;96949.00;2058778;28;20038;-56
2024/02/03 03:07:51;;;;;;;2.25;0.60;;;;;;;4.98;nan;96949.84;2059406;28;20042;-56
2024/02/03 03:08:52;;;;;;;0.88;0.70;;;;;;;4.96;nan;96955.88;2059194;28;20440;-55
2024/02/03 03:09:53;;;;;;;2.08;1.00;;;;;;;4.85;nan;96954.25;2059888;28;20058;-60
2024/02/03 03:10:54;;;;;;;1.20;0.55;;;;;;;4.74;nan;96953.50;2059146;28;20039;-56
2024/02/03 03:11:55;;;;;;;1.55;0.52;;;;;;;4.76;nan;96950.94;2058627;28;20053;-55
2024/02/03 03:12:56;;;;;;;1.83;0.80;;;;;;;4.75;nan;96946.63;2059868;28;20058;-56
2024/02/03 03:13:58;;;;;;;0.98;0.70;;;;;;;4.74;nan;96952.66;2066233;28;20403;-55
2024/02/03 03:14:59;;;;;;;1.90;0.75;;;;;;;4.70;nan;96954.38;2065471;28;20054;-55
2024/02/03 03:16:00;;;;;;;0.98;0.50;;;;;;;4.72;nan;96949.25;2066211;28;20398;-54
2024/02/03 03:17:01;;;;;;;0.90;0.65;;;;;;;4.74;nan;96952.66;2065423;28;20065;-54
2024/02/03 03:18:02;;;;;;;1.00;0.55;;;;;;;4.62;nan;96949.34;2066110;28;20034;-54
2024/02/03 03:19:03;;;;;;;1.50;0.80;;;;;;;4.57;nan;96945.06;2065590;28;20047;-54
2024/02/03 03:20:05;;;;;;;1.48;0.80;;;;;;;4.63;nan;96952.75;2065565;28;20058;-54
2024/02/03 03:21:07;;;;;;;1.52;0.63;;;;;;;4.62;nan;96949.34;2066122;28;20046;-55
2024/02/03 03:22:08;;;;;;;1.42;0.60;;;;;;;4.59;nan;96951.06;2065462;28;20046;-54
2024/02/03 03:23:09;;;;;;;1.90;0.70;;;;;;;4.59;nan;96958.78;2065678;28;20046;-55
2024/02/03 03:24:10;;;;;;;1.42;0.77;;;;;;;4.56;nan;96946.78;2065577;28;20475;-55
2024/02/03 03:25:12;;;;;;;1.63;0.80;;;;;;;4.58;nan;96941.66;2057640;28;20050;-54
2024/02/03 03:26:13;;;;;;;1.83;1.05;;;;;;;4.67;nan;96959.56;2057044;28;20053;-56
2024/02/03 03:27:15;;;;;;;2.15;1.00;;;;;;;4.56;nan;96948.50;2065786;28;20050;-54
2024/02/03 03:28:16;;;;;;;1.55;0.68;;;;;;;4.51;nan;96960.56;2065669;28;20057;-55
2024/02/03 03:29:17;;;;;;;2.25;0.73;;;;;;;4.50;nan;96961.44;2066046;28;20050;-55
2024/02/03 03:30:18;;;;;;;1.98;0.90;;;;;;;4.52;nan;96958.00;2066247;28;20038;-55
2024/02/03 03:31:19;;;;;;;1.88;0.98;;;;;;;4.58;nan;96957.06;2066089;28;20038;-55
2024/02/03 03:32:20;;;;;;;1.63;0.90;;;;;;;4.52;nan;96963.13;2066134;28;20038;-55
2024/02/03 03:33:21;;;;;;;1.75;0.80;;;;;;;4.46;nan;96958.00;2066180;28;20053;-55
2024/02/03 03:34:22;;;;;;;2.22;0.93;;;;;;;4.44;nan;96959.78;2065550;28;20054;-55
2024/02/03 03:35:25;;;;;;;2.58;0.80;;;;;;;4.39;nan;96962.38;2065063;28;20050;-54
2024/02/03 03:36:26;;;;;;;1.38;0.80;;;;;;;4.39;nan;96971.81;2065504;28;20061;-55
2024/02/03 03:37:27;;;;;;;3.88;1.23;;;;;;;4.42;nan;96966.63;2066026;28;20042;-55
2024/02/03 03:38:29;;;;;;;1.00;0.60;;;;;;;4.41;nan;96973.50;2066246;28;20030;-56
2024/02/03 03:39:30;;;;;;;2.70;0.77;;;;;;;4.35;nan;96967.53;2065421;28;20482;-55
2024/02/03 03:40:31;;;;;;;1.52;0.70;;;;;;;4.30;nan;96969.28;2066047;28;20062;-56
2024/02/03 03:41:32;;;;;;;1.50;0.73;;;;;;;4.27;nan;96966.72;2065419;28;20413;-54
2024/02/03 03:42:33;;;;;;;1.45;0.65;;;;;;;4.28;nan;96966.75;2065629;28;20042;-55
2024/02/03 03:43:35;;;;;;;1.85;1.00;;;;;;;4.29;nan;96967.59;2066102;28;20406;-56
2024/02/03 03:44:36;;;;;;;1.17;0.75;;;;;;;4.30;nan;96972.69;2066004;28;20061;-55
2024/02/03 03:45:37;;;;;;;1.67;0.90;;;;;;;4.34;nan;96970.97;2065551;28;20057;-55
2024/02/03 03:46:38;;;;;;;1.75;0.93;;;;;;;4.30;nan;96971.84;2065700;28;20055;-55
2024/02/03 03:47:39;;;;;;;1.30;0.90;;;;;;;4.27;nan;96969.31;2065115;28;20042;-54
2024/02/03 03:48:41;;;;;;;2.17;0.80;;;;;;;4.24;nan;96970.19;2065460;28;20402;-56
2024/02/03 03:49:42;;;;;;;1.30;0.70;;;;;;;4.24;nan;96966.75;2065352;28;20047;-55
2024/02/03 03:50:43;;;;;;;1.27;0.75;;;;;;;4.25;nan;96965.88;2065965;28;20038;-55
2024/02/03 03:51:45;;;;;;;2.13;1.08;;;;;;;4.27;nan;96964.16;2057240;28;20050;-54
2024/02/03 03:52:46;;;;;;;2.33;0.85;;;;;;;4.23;nan;96965.06;2056903;28;20059;-55
2024/02/03 03:53:47;;;;;;;1.60;0.55;;;;;;;4.24;nan;96966.75;2066005;28;20050;-55
2024/02/03 03:54:48;;;;;;;1.52;0.77;;;;;;;4.19;nan;96964.22;2064702;28;20054;-55
2024/02/03 03:55:49;;;;;;;1.38;0.65;;;;;;;4.13;nan;96959.97;2065605;28;20053;-55
2024/02/03 03:56:51;;;;;;;1.50;0.82;;;;;;;4.25;nan;96955.59;2065960;28;20065;-55
2024/02/03 03:57:52;;;;;;;1.38;0.70;;;;;;;4.27;nan;96951.31;2065899;28;20042;-55
2024/02/03 03:58:53;;;;;;;1.55;0.88;;;;;;;4.28;nan;96958.19;2065526;28;20054;-54
2024/02/03 03:59:54;;;;;;;1.77;0.80;;;;;;;4.27;nan;96961.59;2065098;28;20494;-55
2024/02/03 04:00:55;;;;;;;1.98;0.90;;;;;;;4.37;nan;96968.38;2057254;28;20041;-55
2024/02/03 04:01:56;;;;;;;2.53;0.98;;;;;;;4.25;nan;96955.59;2057442;28;20412;-54
2024/02/03 04:02:57;;;;;;;2.03;0.70;;;;;;;4.31;nan;96958.16;2065429;28;20042;-54
2024/02/03 04:03:58;;;;;;;1.58;0.80;;;;;;;4.28;nan;96969.31;2066177;28;20398;-56
2024/02/03 04:04:59;;;;;;;1.60;0.80;;;;;;;4.23;nan;96971.06;2065632;28;20034;-54
2024/02/03 04:06:00;;;;;;;1.95;1.00;;;;;;;4.20;nan;96968.50;2065872;28;20050;-55
2024/02/03 04:07:01;;;;;;;1.95;0.88;;;;;;;4.17;nan;96971.06;2065661;28;20049;-56
2024/02/03 04:08:03;;;;;;;2.38;1.10;;;;;;;4.22;nan;96966.75;2064834;28;20058;-55
2024/02/03 04:09:05;;;;;;;1.65;0.85;;;;;;;4.19;nan;96962.50;2065758;28;20046;-56
2024/02/03 04:10:07;;;;;;;1.50;0.70;;;;;;;4.15;nan;96963.38;2064887;28;20061;-55
2024/02/03 04:11:08;;;;;;;1.40;0.73;;;;;;;4.17;nan;96966.81;2065813;28;20049;-55
2024/02/03 04:12:09;;;;;;;1.92;1.00;;;;;;;4.26;nan;96972.75;2065529;28;20057;-54
2024/02/03 04:13:10;;;;;;;2.38;1.00;;;;;;;4.23;nan;96968.47;2065613;28;20061;-56
2024/02/03 04:14:11;;;;;;;1.13;0.73;;;;;;;4.15;nan;96963.38;2066055;28;20037;-56
2024/02/03 04:15:12;;;;;;;1.33;0.77;;;;;;;4.26;nan;96962.47;2065819;28;20065;-55
2024/02/03 04:16:13;;;;;;;1.58;0.90;;;;;;;4.29;nan;96963.28;2065911;28;20491;-55
2024/02/03 04:17:15;;;;;;;2.00;0.88;;;;;;;4.21;nan;96967.63;2065788;28;20066;-54
2024/02/03 04:18:16;;;;;;;0.82;0.70;;;;;;;4.19;nan;96969.34;2056665;28;20055;-55
2024/02/03 04:19:17;;;;;;;2.13;0.90;;;;;;;4.13;nan;96967.69;2056860;28;20066;-55
2024/02/03 04:20:18;;;;;;;1.27;0.88;;;;;;;4.13;nan;96959.97;2065604;28;20054;-54
2024/02/03 04:21:19;;;;;;;1.38;0.85;;;;;;;4.14;nan;96958.25;2065906;28;20463;-54
2024/02/03 04:22:20;;;;;;;1.75;0.88;;;;;;;4.27;nan;96959.03;2065215;28;20054;-55
2024/02/03 04:23:21;;;;;;;2.00;1.10;;;;;;;4.26;nan;96965.88;2065814;28;20038;-55
2024/02/03 04:24:22;;;;;;;1.48;0.73;;;;;;;4.14;nan;96953.09;2065258;28;20042;-57
2024/02/03 04:25:23;;;;;;;1.88;1.10;;;;;;;4.11;nan;96959.13;2065005;28;20061;-54
2024/02/03 04:26:25;;;;;;;1.25;0.70;;;;;;;4.02;nan;96956.63;2065898;28;20041;-55
2024/02/03 04:27:26;;;;;;;2.65;1.08;;;;;;;4.05;nan;96951.47;2065666;28;20034;-55
2024/02/03 04:28:27;;;;;;;2.47;1.08;;;;;;;4.05;nan;96956.59;2057325;28;20038;-54
2024/02/03 04:29:28;;;;;;;1.65;0.90;;;;;;;4.04;nan;96964.34;2057132;28;20030;-55
2024/02/03 04:30:29;;;;;;;1.48;0.80;;;;;;;3.98;nan;96960.94;2065811;28;20045;-55
2024/02/03 04:31:30;;;;;;;1.67;0.90;;;;;;;3.91;nan;96961.81;2065740;28;20502;-54
2024/02/03 04:32:32;;;;;;;1.63;0.93;;;;;;;3.86;nan;96960.16;2065736;28;20041;-56
2024/02/03 04:33:33;;;;;;;2.13;0.90;;;;;;;4.09;nan;96958.28;2056629;28;20061;-55
2024/02/03 04:34:34;;;;;;;1.80;1.08;;;;;;;3.97;nan;96964.34;2057373;28;20049;-55
2024/02/03 04:35:35;;;;;;;2.40;0.90;;;;;;;3.90;nan;96957.56;2065017;28;20483;-55
2024/02/03 04:36:36;;;;;;;2.25;0.90;;;;;;;3.89;nan;96952.41;2064802;28;20054;-55
2024/02/03 04:37:38;;;;;;;1.58;0.90;;;;;;;3.89;nan;96954.97;2065090;28;20050;-55
2024/02/03 04:38:39;;;;;;;1.83;0.90;;;;;;;3.81;nan;96954.16;2065717;28;20034;-55
2024/02/03 04:39:41;;;;;;;1.80;0.90;;;;;;;3.83;nan;96960.16;2065010;28;20054;-55
2024/02/03 04:40:42;;;;;;;2.13;1.10;;;;;;;4.01;nan;96954.91;2065677;28;20042;-55
2024/02/03 04:41:43;;;;;;;1.50;0.90;;;;;;;4.07;nan;96956.59;2065562;28;20049;-54
2024/02/03 04:42:44;;;;;;;1.77;0.90;;;;;;;3.96;nan;96954.09;2065686;28;20047;-55
2024/02/03 04:43:45;;;;;;;2.45;1.00;;;;;;;4.00;nan;96952.34;2065940;28;20030;-55
2024/02/03 04:44:47;;;;;;;1.58;0.88;;;;;;;4.03;nan;96950.59;2065700;28;20406;-55
2024/02/03 04:45:48;;;;;;;2.25;1.10;;;;;;;4.01;nan;96949.78;2064923;28;20057;-56
2024/02/03 04:46:49;;;;;;;2.40;0.77;;;;;;;4.00;nan;96957.50;2065654;28;20501;-56
2024/02/03 04:47:50;;;;;;;2.53;0.93;;;;;;;3.97;nan;96948.09;2065870;28;20035;-55
2024/02/03 04:48:52;;;;;;;3.50;1.20;;;;;;;3.97;nan;96941.22;2065306;28;20410;-55
2024/02/03 04:49:53;;;;;;;1.27;0.88;;;;;;;3.93;nan;96956.69;2065566;28;20050;-54
2024/02/03 04:50:54;;;;;;;1.90;1.05;;;;;;;3.98;nan;96960.06;2065093;28;20077;-55
2024/02/03 04:51:55;;;;;;;1.95;1.08;;;;;;;3.98;nan;96953.22;2064882;28;20050;-54
2024/02/03 04:52:56;;;;;;;2.00;1.15;;;;;;;3.88;nan;96950.72;2064973;28;20051;-54
2024/02/03 04:53:57;;;;;;;2.08;1.10;;;;;;;3.89;nan;96950.69;2065685;28;20046;-55
2024/02/03 04:54:58;;;;;;;2.08;1.02;;;;;;;3.90;nan;96951.53;2065075;28;20057;-55
2024/02/03 04:55:59;;;;;;;1.88;0.82;;;;;;;3.91;nan;96953.25;2064701;28;20054;-55
2024/02/03 04:57:00;;;;;;;2.17;0.90;;;;;;;4.00;nan;96952.34;2065563;28;20042;-55
2024/02/03 04:58:02;;;;;;;2.90;1.20;;;;;;;4.08;nan;96948.00;2065055;28;20057;-55
2024/02/03 04:59:03;;;;;;;3.22;1.02;;;;;;;4.04;nan;96946.34;2064720;28;20054;-54